Time;durP1;ratioP1;P1;durP2;ratioP2;P2;SDS_P1;SDS_P2;PMS_P1;PMS_P2;Temp;Humidity;BMP_temperature;BMP_pressure;BME280_temperature;BME280_humidity;BME280_pressure;Samples;Min_cycle;Max_cycle;Signal;HPM_P1;HPM_P2
2022/03/29 03:15:03;;;;;;;24.25;12.05;;;;;;;6.95;42.75;94421.72;6138144;23;20005;31
2022/03/29 03:17:31;;;;;;;27.30;11.65;;;;;;;7.00;41.91;94424.41;4941325;29;20055;-86
2022/03/29 03:19:56;;;;;;;25.17;11.80;;;;;;;6.94;42.34;94427.97;4942790;29;20039;-86
2022/03/29 03:22:22;;;;;;;23.50;11.25;;;;;;;6.99;42.94;94422.84;4949084;29;20125;-86
2022/03/29 03:24:50;;;;;;;25.17;11.30;;;;;;;6.86;43.45;94426.56;4974782;28;20506;-86
2022/03/29 03:27:16;;;;;;;22.75;11.73;;;;;;;7.09;41.94;94427.38;4957507;29;20035;-86
2022/03/29 03:29:44;;;;;;;25.35;11.13;;;;;;;7.01;41.39;94419.97;4942809;29;20061;-86
2022/03/29 03:32:10;;;;;;;21.60;11.00;;;;;;;7.23;41.16;94414.75;4942513;29;20047;-86
2022/03/29 03:34:35;;;;;;;22.25;11.63;;;;;;;7.42;40.80;94412.59;4942479;29;20089;-86
2022/03/29 03:37:03;;;;;;;27.02;11.50;;;;;;;7.28;42.93;94416.63;4958777;29;20126;-86
2022/03/29 03:39:38;;;;;;;23.35;11.70;;;;;;;7.01;43.82;94412.16;4926265;29;20143;-86
2022/03/29 03:42:12;;;;;;;25.83;10.85;;;;;;;6.90;42.49;94413.84;4928127;29;20039;-86
2022/03/29 03:44:39;;;;;;;25.25;10.85;;;;;;;6.70;43.96;94414.41;4926225;29;20043;-86
2022/03/29 03:47:08;;;;;;;26.08;10.65;;;;;;;6.54;43.73;94411.59;4943036;29;20495;-86
2022/03/29 03:49:37;;;;;;;24.35;10.68;;;;;;;6.65;43.02;94402.91;4942810;29;20048;-86
2022/03/29 03:52:04;;;;;;;19.40;11.10;;;;;;;6.79;43.57;94405.91;4926622;29;20046;-86
2022/03/29 03:54:31;;;;;;;24.42;10.73;;;;;;;6.69;43.84;94400.59;4926001;29;20043;-86
2022/03/29 03:56:57;;;;;;;22.15;11.25;;;;;;;6.61;43.32;94401.00;4958161;29;20035;-86
2022/03/29 03:59:23;;;;;;;23.13;11.02;;;;;;;6.58;43.28;94397.06;4942646;29;20039;-87
2022/03/29 04:01:48;;;;;;;25.08;11.75;;;;;;;6.61;43.50;94388.78;4941507;29;20039;-87
2022/03/29 04:04:14;;;;;;;21.73;11.02;;;;;;;6.43;45.26;94389.06;4941918;29;20047;-86
2022/03/29 04:06:39;;;;;;;22.70;11.38;;;;;;;6.34;45.50;94386.88;4958143;29;20094;-86
2022/03/29 04:09:05;;;;;;;23.33;10.65;;;;;;;6.38;44.86;94386.41;4942484;29;20035;-86
2022/03/29 04:11:36;;;;;;;30.40;11.70;;;;;;;6.28;45.97;94380.00;4942082;29;20039;-87
2022/03/29 04:14:02;;;;;;;25.63;10.73;;;;;;;6.18;45.57;94382.50;4941696;29;20039;-87
2022/03/29 04:16:29;;;;;;;28.27;11.88;;;;;;;6.27;46.47;94394.06;4926062;29;20050;-87
2022/03/29 04:18:57;;;;;;;22.23;11.43;;;;;;;6.27;45.80;94385.47;4926883;29;20035;-86
2022/03/29 04:21:23;;;;;;;24.90;11.68;;;;;;;6.35;45.02;94380.66;4943644;28;20039;-86
2022/03/29 04:23:50;;;;;;;26.75;12.07;;;;;;;6.46;45.06;94380.78;4944594;28;20045;-86
2022/03/29 04:26:16;;;;;;;27.92;12.25;;;;;;;6.42;45.84;94387.47;4961440;28;20045;-86
2022/03/29 04:28:41;;;;;;;27.38;12.98;;;;;;;6.73;45.75;94382.66;4961021;28;20042;-87
2022/03/29 04:31:10;;;;;;;26.25;12.18;;;;;;;6.65;44.38;94378.66;4945386;28;20046;-87
2022/03/29 04:33:36;;;;;;;26.70;12.18;;;;;;;6.84;43.71;94378.38;4961002;28;20042;-86
2022/03/29 04:36:02;;;;;;;30.55;11.98;;;;;;;6.89;43.78;94374.03;4945275;28;20042;-87
2022/03/29 04:38:27;;;;;;;25.80;10.90;;;;;;;6.80;45.10;94367.66;4961080;28;20113;-87
2022/03/29 04:40:53;;;;;;;23.95;11.50;;;;;;;6.81;45.42;94374.44;4960981;28;20081;-86
2022/03/29 04:43:20;;;;;;;24.75;11.93;;;;;;;6.84;44.57;94373.94;4960610;28;20049;-85
2022/03/29 04:45:46;;;;;;;30.83;13.45;;;;;;;6.75;45.51;94367.59;4977494;28;20066;-86
2022/03/29 04:48:19;;;;;;;27.25;11.85;;;;;;;6.87;45.26;94373.44;4961073;28;20050;-87
2022/03/29 04:50:46;;;;;;;26.60;12.48;;;;;;;6.74;46.45;94373.81;4961288;28;20042;-88
2022/03/29 04:53:13;;;;;;;24.23;11.45;;;;;;;6.76;44.98;94369.94;4945470;28;20229;-87
2022/03/29 04:55:42;;;;;;;24.25;10.70;;;;;;;6.79;45.24;94363.47;4958641;28;20050;-87
2022/03/29 04:58:07;;;;;;;27.50;11.10;;;;;;;6.83;44.70;94361.19;4961142;28;20118;-86
2022/03/29 05:00:33;;;;;;;28.73;11.98;;;;;;;6.78;45.92;94356.69;4976572;28;20137;-87
2022/03/29 05:02:58;;;;;;;25.23;11.68;;;;;;;6.62;46.51;94361.72;4960711;28;20053;-87
2022/03/29 05:05:23;;;;;;;24.85;11.32;;;;;;;6.66;45.15;94362.00;4960711;28;20050;-87
2022/03/29 05:07:49;;;;;;;21.63;10.82;;;;;;;6.57;46.76;94359.03;4961104;28;20034;-87
2022/03/29 05:10:14;;;;;;;23.15;11.75;;;;;;;6.47;45.98;94359.72;4977999;28;20050;-87
2022/03/29 05:12:51;;;;;;;27.50;12.40;;;;;;;6.61;45.52;94352.34;4945175;28;20445;-87
2022/03/29 05:15:18;;;;;;;25.48;11.45;;;;;;;6.91;44.69;94360.75;4976214;28;20046;-87
2022/03/29 05:17:46;;;;;;;19.58;10.02;;;;;;;6.95;44.21;94353.22;4944516;28;20034;-85
2022/03/29 05:20:13;;;;;;;24.27;11.25;;;;;;;6.93;45.94;94359.47;4976475;28;20050;-86
2022/03/29 05:22:42;;;;;;;25.73;11.75;;;;;;;6.95;44.39;94361.81;4944769;28;20466;-85
2022/03/29 05:25:07;;;;;;;24.40;10.55;;;;;;;7.01;43.83;94360.06;4960353;28;20041;-85
2022/03/29 05:27:33;;;;;;;23.65;11.10;;;;;;;7.01;45.72;94360.06;4960712;28;20038;-85
2022/03/29 05:29:59;;;;;;;21.27;10.80;;;;;;;6.98;44.85;94357.94;4976690;28;20027;-85
2022/03/29 05:32:24;;;;;;;23.63;11.77;;;;;;;6.90;46.07;94359.16;4960578;28;20454;-85
2022/03/29 05:34:52;;;;;;;22.83;10.45;;;;;;;6.93;45.24;94351.66;4959868;28;20430;-85
2022/03/29 05:37:18;;;;;;;18.20;9.45;;;;;;;6.98;44.84;94353.53;4976293;28;20379;-86
2022/03/29 05:39:43;;;;;;;24.42;10.13;;;;;;;7.04;44.90;94356.97;4944431;28;20026;-85
2022/03/29 05:42:11;;;;;;;20.38;10.40;;;;;;;7.06;44.94;94355.69;4959933;28;20045;-85
2022/03/29 05:44:37;;;;;;;20.83;9.40;;;;;;;7.11;44.27;94362.78;4959879;28;20062;-85
2022/03/29 05:49:49;;;;;;;21.17;10.48;;;;;;;7.27;44.77;94366.34;4962813;28;20348;-85
2022/03/29 05:52:14;;;;;;;20.27;10.98;;;;;;;7.32;44.92;94363.00;4957276;28;20043;-85
2022/03/29 05:54:44;;;;;;;23.27;10.80;;;;;;;7.45;45.03;94367.78;4925075;29;20035;-86
2022/03/29 05:57:13;;;;;;;25.42;11.02;;;;;;;7.60;43.63;94367.16;4941298;29;20031;-85
2022/03/29 05:59:39;;;;;;;26.00;11.50;;;;;;;7.83;43.91;94361.84;4940852;29;20036;-85
2022/03/29 06:02:04;;;;;;;24.70;11.55;;;;;;;7.94;44.68;94371.31;4942064;29;20433;-85
2022/03/29 06:04:34;;;;;;;24.05;12.20;;;;;;;8.09;44.26;94368.00;4944177;29;20040;-85
2022/03/29 06:06:59;;;;;;;28.20;12.18;;;;;;;8.21;42.47;94368.63;4944425;29;20420;-85
2022/03/29 06:09:25;;;;;;;21.92;12.00;;;;;;;8.35;42.40;94358.53;4944112;29;20051;-85
2022/03/29 06:11:50;;;;;;;29.17;12.18;;;;;;;8.54;41.58;94359.97;4944059;29;20453;-85
2022/03/29 06:14:16;;;;;;;22.65;11.20;;;;;;;8.65;41.77;94358.19;4943995;29;20046;-85
2022/03/29 06:16:43;;;;;;;25.73;11.88;;;;;;;8.78;42.70;94357.72;4943949;29;20130;-85
2022/03/29 06:19:09;;;;;;;24.20;11.55;;;;;;;8.89;42.50;94361.94;4928674;29;20527;-85
2022/03/29 06:21:36;;;;;;;23.10;11.13;;;;;;;9.00;41.41;94351.50;4944025;29;20081;-86
2022/03/29 06:24:07;;;;;;;19.83;9.35;;;;;;;9.14;39.13;94355.19;4943586;29;20053;-85
2022/03/29 06:26:36;;;;;;;22.38;8.98;;;;;;;9.38;39.59;94352.13;4944360;29;20145;-85
2022/03/29 06:29:05;;;;;;;23.10;9.52;;;;;;;9.25;41.50;94353.38;4944253;29;20442;-86
2022/03/29 06:31:30;;;;;;;19.88;8.77;;;;;;;9.40;41.81;94352.63;4944008;29;20493;-86
2022/03/29 06:33:56;;;;;;;19.60;9.30;;;;;;;9.59;39.98;94357.34;4943709;29;20135;-86
2022/03/29 06:36:21;;;;;;;18.02;8.80;;;;;;;9.54;41.37;94360.78;4928137;29;20065;-86
2022/03/29 06:38:47;;;;;;;20.92;8.38;;;;;;;9.67;38.98;94356.84;4943812;29;20138;-86
2022/03/29 06:41:13;;;;;;;23.35;9.13;;;;;;;9.75;41.74;94355.53;4943550;29;20494;-86
2022/03/29 06:43:40;;;;;;;19.77;9.07;;;;;;;9.75;43.77;94364.19;4942831;29;20039;-86
2022/03/29 06:46:08;;;;;;;20.42;10.18;;;;;;;9.73;41.35;94361.03;4927826;29;20187;-85
2022/03/29 06:48:41;;;;;;;23.73;9.55;;;;;;;9.79;40.42;94361.03;4943836;29;20427;-86
2022/03/29 06:51:12;;;;;;;22.08;11.48;;;;;;;9.65;42.76;94358.94;4943902;29;20044;-86
2022/03/29 06:53:39;;;;;;;35.15;16.85;;;;;;;9.92;39.76;94364.97;4943192;29;20130;-86
2022/03/29 06:56:08;;;;;;;27.90;11.52;;;;;;;10.08;42.77;94371.75;4927790;29;20074;-85
2022/03/29 06:58:37;;;;;;;20.83;9.68;;;;;;;10.03;38.85;94375.16;4943472;29;20071;-86
2022/03/29 07:01:03;;;;;;;22.90;9.05;;;;;;;10.42;41.08;94359.94;4943451;29;20043;-86
2022/03/29 07:03:34;;;;;;;23.25;10.90;;;;;;;10.46;41.12;94356.53;4942968;29;20440;-86
2022/03/29 07:06:00;;;;;;;20.95;10.23;;;;;;;10.91;40.37;94365.56;4944016;29;20043;-86
2022/03/29 07:08:26;;;;;;;23.35;11.35;;;;;;;10.65;43.65;94361.19;4927821;29;20043;-86
2022/03/29 07:13:36;;;;;;;;;;;;;;;11.19;40.55;94358.84;4959111;28;20082;-86
2022/03/29 07:16:01;;;;;;;25.67;10.65;;;;;;;11.26;39.74;94358.56;4959968;29;19921;-86
2022/03/29 07:18:27;;;;;;;23.20;11.60;;;;;;;11.07;42.22;94361.81;4942902;29;20035;-86
2022/03/29 07:20:52;;;;;;;20.65;11.25;;;;;;;11.33;40.76;94361.66;4942873;29;20074;-86
2022/03/29 07:23:18;;;;;;;26.73;10.88;;;;;;;11.52;41.11;94367.03;4942900;29;20129;-86
2022/03/29 07:25:43;;;;;;;18.95;10.23;;;;;;;11.60;41.12;94357.81;4942951;29;20046;-86
2022/03/29 07:28:11;;;;;;;21.23;10.57;;;;;;;11.55;39.96;94365.72;4942926;29;20039;-86
2022/03/29 07:30:38;;;;;;;19.08;10.25;;;;;;;11.70;39.24;94367.47;4943182;29;20039;-86
2022/03/29 07:33:04;;;;;;;23.15;10.68;;;;;;;11.57;41.18;94364.41;4942834;29;20114;-86
2022/03/29 07:35:30;;;;;;;18.63;9.38;;;;;;;11.82;38.96;94364.50;4942319;29;20082;-86
2022/03/29 07:37:56;;;;;;;27.05;9.82;;;;;;;11.67;40.93;94362.75;4942637;29;20031;-86
2022/03/29 07:40:24;;;;;;;22.27;11.07;;;;;;;11.92;42.06;94361.00;4927032;29;20161;-86
2022/03/29 07:42:50;;;;;;;17.67;10.02;;;;;;;12.30;39.71;94359.34;4942731;29;20041;-86
2022/03/29 07:45:16;;;;;;;16.85;10.07;;;;;;;12.45;39.92;94357.63;4941970;29;20035;-86
2022/03/29 07:47:42;;;;;;;21.08;10.50;;;;;;;12.49;40.03;94358.66;4942530;29;20113;-86
2022/03/29 07:50:10;;;;;;;16.55;9.98;;;;;;;12.64;38.16;94356.94;4942451;29;20035;-86
2022/03/29 07:52:45;;;;;;;18.52;10.23;;;;;;;12.84;36.50;94361.19;4958755;29;20042;-86
2022/03/29 07:55:12;;;;;;;22.92;10.15;;;;;;;12.79;40.77;94358.59;4926559;29;20039;-86
2022/03/29 07:57:39;;;;;;;20.45;9.27;;;;;;;13.03;39.02;94363.06;4942383;29;20461;-86
2022/03/29 08:02:53;;;;;;;17.17;9.75;;;;;;;13.42;36.98;94362.78;4944749;29;20491;-86
2022/03/29 08:05:20;;;;;;;19.67;8.80;;;;;;;13.49;34.33;94353.78;4941555;29;20070;-86
2022/03/29 08:07:49;;;;;;;22.38;9.63;;;;;;;13.52;37.39;94351.34;4942232;29;20035;-86
2022/03/29 08:10:14;;;;;;;20.85;9.18;;;;;;;13.51;35.63;94349.03;4942415;29;20039;-86
2022/03/29 08:12:42;;;;;;;19.05;8.82;;;;;;;13.09;35.83;94346.13;4942015;29;20437;-86
2022/03/29 08:15:08;;;;;;;18.65;8.93;;;;;;;13.56;36.17;94352.38;4957771;29;20043;-86
2022/03/29 08:17:34;;;;;;;22.77;8.38;;;;;;;13.79;34.32;94346.50;4942005;29;20038;-87
2022/03/29 08:20:01;;;;;;;16.58;8.38;;;;;;;13.97;34.07;94352.78;4926710;29;20138;-87
2022/03/29 08:22:26;;;;;;;22.90;8.73;;;;;;;14.07;32.56;94336.81;4941974;29;20039;-87
2022/03/29 08:24:52;;;;;;;21.10;8.70;;;;;;;14.17;37.01;94333.22;4941263;29;20046;-87
2022/03/29 08:27:18;;;;;;;17.92;8.65;;;;;;;14.35;36.13;94331.59;4957976;29;20039;-86
2022/03/29 08:29:43;;;;;;;18.08;8.10;;;;;;;14.33;35.48;94338.22;4941610;29;20078;-86
2022/03/29 08:32:09;;;;;;;23.65;9.10;;;;;;;14.15;37.31;94332.72;4941567;29;20117;-86
2022/03/29 08:34:34;;;;;;;18.08;8.75;;;;;;;14.23;35.48;94332.06;4958324;29;20123;-86
2022/03/29 08:37:00;;;;;;;16.75;8.35;;;;;;;14.30;36.99;94329.06;4941705;29;20104;-87
2022/03/29 08:39:25;;;;;;;22.35;8.60;;;;;;;14.50;37.44;94325.25;4925886;29;20038;-86
2022/03/29 08:41:58;;;;;;;22.25;9.13;;;;;;;14.48;36.73;94324.75;4941545;29;20046;-86
2022/03/29 08:44:26;;;;;;;18.35;8.23;;;;;;;14.58;34.45;94323.78;4941245;29;20051;-86
2022/03/29 08:46:52;;;;;;;16.60;7.72;;;;;;;14.62;33.40;94314.22;4941423;29;20047;-86
2022/03/29 08:49:19;;;;;;;17.88;7.20;;;;;;;14.74;33.42;94313.75;4941381;29;20043;-86
2022/03/29 08:51:45;;;;;;;19.98;8.35;;;;;;;14.93;36.83;94311.00;4941466;29;20051;-86
2022/03/29 08:54:11;;;;;;;16.55;7.40;;;;;;;15.03;35.36;94301.31;4941073;29;20040;-86
2022/03/29 08:56:38;;;;;;;15.38;8.15;;;;;;;15.01;33.75;94296.31;4944761;28;20042;-86
2022/03/29 08:59:03;;;;;;;22.63;8.15;;;;;;;15.02;33.12;94308.44;4976665;28;20043;-86
2022/03/29 09:01:29;;;;;;;19.67;7.45;;;;;;;15.04;33.60;94306.28;4977204;28;20098;-86
2022/03/29 09:04:15;;;;;;;18.75;8.70;;;;;;;15.02;34.73;94299.75;4976123;28;20047;-86
2022/03/29 09:07:02;;;;;;;14.90;8.07;;;;;;;15.00;35.24;94294.00;4960527;28;20042;-86
2022/03/29 09:09:38;;;;;;;19.67;8.05;;;;;;;15.08;34.85;94294.06;4976696;28;20137;-87
2022/03/29 09:12:15;;;;;;;19.23;7.32;;;;;;;15.09;32.48;94285.06;4977053;28;20039;-86
2022/03/29 09:14:55;;;;;;;22.30;8.02;;;;;;;15.19;31.93;94284.06;4960206;28;20133;-86
2022/03/29 09:17:28;;;;;;;13.70;7.20;;;;;;;15.51;32.50;94279.63;4976537;28;20062;-87
2022/03/29 09:19:55;;;;;;;20.50;7.78;;;;;;;15.59;34.76;94283.41;4960578;28;20045;-86
2022/03/29 09:22:41;;;;;;;27.67;8.30;;;;;;;15.57;34.43;94277.66;4976352;28;20130;-86
2022/03/29 09:25:08;;;;;;;18.13;7.25;;;;;;;15.88;32.98;94289.34;4959980;28;20043;-86
2022/03/29 09:27:51;;;;;;;20.88;7.80;;;;;;;15.77;33.49;94286.94;4944539;28;20348;-86
2022/03/29 09:30:17;;;;;;;;;;;;;;;15.97;32.63;94279.63;4960693;28;20034;-87
2022/03/29 09:33:04;;;;;;;17.35;7.57;;;;;;;15.98;31.60;94278.53;4960258;28;19910;-87
2022/03/29 09:35:31;;;;;;;13.38;7.13;;;;;;;15.93;35.11;94282.09;4976232;28;20039;-87
2022/03/29 09:37:57;;;;;;;14.48;6.72;;;;;;;16.29;31.60;94276.97;4963150;28;20093;-87
2022/03/29 09:40:34;;;;;;;20.35;6.80;;;;;;;16.25;30.93;94280.22;4948400;28;20333;-86
2022/03/29 09:43:08;;;;;;;11.23;5.70;;;;;;;16.54;30.28;94273.63;4964084;28;20364;-87
2022/03/29 09:45:51;;;;;;;16.80;7.30;;;;;;;16.36;28.35;94269.38;4963879;28;20054;-87
2022/03/29 09:48:24;;;;;;;18.80;7.07;;;;;;;16.44;31.28;94271.25;4948220;28;20042;-86
2022/03/29 09:50:53;;;;;;;12.07;6.30;;;;;;;16.74;34.28;94260.16;4980008;28;20278;-86
2022/03/29 09:53:34;;;;;;;16.58;6.72;;;;;;;16.99;28.17;94263.13;4947896;28;20133;-86
2022/03/29 09:56:02;;;;;;;18.25;6.47;;;;;;;16.36;28.78;94259.56;4963807;28;20045;-87
2022/03/29 09:58:28;;;;;;;14.00;6.32;;;;;;;16.34;28.30;94250.38;4964146;28;20479;-86
2022/03/29 10:00:55;;;;;;;15.40;6.53;;;;;;;16.35;29.46;94255.38;4979818;28;20043;-87
2022/03/29 10:03:26;;;;;;;16.08;7.18;;;;;;;16.44;30.28;94252.00;4963876;28;20038;-86
2022/03/29 10:05:53;;;;;;;27.00;7.32;;;;;;;16.36;30.60;94250.88;4979962;28;20200;-87
2022/03/29 10:11:16;;;;;;;18.17;7.05;;;;;;;16.85;34.78;94242.09;4979706;28;20502;-87
2022/03/29 10:13:42;;;;;;;21.30;6.72;;;;;;;16.81;31.39;94226.84;4947651;28;20038;-86
2022/03/29 10:16:13;;;;;;;13.77;6.85;;;;;;;16.92;30.07;94229.16;4963340;28;20042;-87
2022/03/29 10:18:41;;;;;;;24.42;7.20;;;;;;;16.58;34.10;94228.84;4948146;28;20137;-87
2022/03/29 10:21:09;;;;;;;12.30;7.10;;;;;;;16.85;33.42;94232.28;4979332;28;20057;-87
2022/03/29 10:23:36;;;;;;;19.83;7.65;;;;;;;16.67;33.27;94226.97;4947676;28;20337;-87
2022/03/29 10:26:04;;;;;;;18.13;7.25;;;;;;;16.78;32.03;94222.16;4963514;28;20066;-88
2022/03/29 10:28:30;;;;;;;15.57;7.07;;;;;;;17.08;35.43;94222.38;4964258;28;20090;-88
2022/03/29 10:30:56;;;;;;;17.27;7.57;;;;;;;17.16;33.50;94215.53;4947336;28;20035;-88
2022/03/29 10:33:31;;;;;;;20.17;8.27;;;;;;;17.30;33.03;94207.41;4980412;28;20408;-88
2022/03/29 10:36:10;;;;;;;15.13;6.70;;;;;;;17.53;31.54;94209.88;4933211;29;20078;-88
2022/03/29 10:38:47;;;;;;;20.58;7.30;;;;;;;17.29;34.23;94205.09;4952245;29;20433;-88
2022/03/29 10:41:28;;;;;;;24.17;10.55;;;;;;;17.63;34.69;94195.50;4944005;29;20064;-88
2022/03/29 10:44:01;;;;;;;21.80;9.07;;;;;;;17.45;35.11;94192.13;4960404;29;20046;-88
2022/03/29 10:46:45;;;;;;;24.03;12.73;;;;;;;17.44;34.61;94198.50;4961011;29;20039;-88
2022/03/29 10:49:36;;;;;;;31.27;14.45;;;;;;;17.16;36.30;94188.25;4928531;29;20090;-88
2022/03/29 10:52:04;;;;;;;28.75;12.63;;;;;;;17.35;35.65;94185.28;4960023;29;20074;-88
2022/03/29 10:54:32;;;;;;;27.65;15.48;;;;;;;16.98;36.80;94182.16;4943676;29;20039;-88
2022/03/29 10:57:14;;;;;;;28.77;13.98;;;;;;;17.07;40.48;94182.97;4943714;29;20348;-88
2022/03/29 10:59:40;;;;;;;29.52;14.18;;;;;;;16.89;42.55;94182.16;4943721;29;20560;-88
2022/03/29 11:02:19;;;;;;;24.90;13.23;;;;;;;17.14;36.17;94174.56;4928316;29;20043;-88
2022/03/29 11:05:07;;;;;;;26.50;12.80;;;;;;;17.28;36.27;94174.38;4943841;29;20436;-88
2022/03/29 11:07:39;;;;;;;28.23;14.02;;;;;;;16.49;39.50;94167.22;4938039;29;20075;-88
2022/03/29 11:10:13;;;;;;;27.60;14.85;;;;;;;16.39;38.74;94174.34;4924593;29;20446;-87
2022/03/29 11:13:03;;;;;;;27.75;14.35;;;;;;;16.75;41.20;94174.41;4940728;29;20126;-88
2022/03/29 11:15:32;;;;;;;27.63;14.02;;;;;;;16.64;37.71;94181.84;4923452;29;20453;-88
2022/03/29 11:17:57;;;;;;;35.47;14.82;;;;;;;16.39;37.32;94179.63;4923526;29;20035;-88
2022/03/29 11:20:59;;;;;;;32.55;12.82;;;;;;;16.75;38.79;94166.47;4923487;29;20042;-87
2022/03/29 11:23:36;;;;;;;30.92;13.52;;;;;;;17.15;41.66;94163.69;4916319;29;20039;-88
2022/03/29 11:26:08;;;;;;;26.10;13.45;;;;;;;17.32;38.08;94160.19;4939143;29;20401;-88
2022/03/29 11:28:34;;;;;;;29.30;14.55;;;;;;;17.44;39.30;94161.44;4938901;29;20115;-88
2022/03/29 11:31:00;;;;;;;26.17;12.80;;;;;;;17.30;38.05;94145.75;4939040;29;20059;-88
2022/03/29 11:33:34;;;;;;;22.90;13.63;;;;;;;17.22;39.58;94144.66;4938626;29;20036;-88
2022/03/29 11:36:00;;;;;;;24.80;13.50;;;;;;;17.68;40.43;94139.69;4923513;29;20043;-88
2022/03/29 11:38:26;;;;;;;24.98;13.38;;;;;;;17.64;38.97;94126.28;4923345;29;20040;-88
2022/03/29 11:40:51;;;;;;;24.58;13.70;;;;;;;17.73;40.49;94131.59;4938815;29;20354;-87
2022/03/29 11:43:22;;;;;;;25.63;13.63;;;;;;;18.31;40.71;94130.38;4922987;29;20047;-87
2022/03/29 11:45:48;;;;;;;31.23;14.90;;;;;;;18.43;40.09;94119.84;4938742;29;20042;-88
2022/03/29 11:48:20;;;;;;;34.17;17.25;;;;;;;18.45;38.62;94124.81;4938820;29;20083;-88
2022/03/29 11:50:51;;;;;;;34.78;17.90;;;;;;;18.01;39.78;94109.16;4923310;29;20079;-88
2022/03/29 11:53:35;;;;;;;35.60;18.67;;;;;;;18.61;41.49;94109.09;4939782;29;20513;-88
2022/03/29 11:56:00;;;;;;;;;;;;;;;18.87;43.33;94106.22;4923359;29;20062;-87
2022/03/29 11:58:27;;;;;;;34.15;17.48;;;;;;;19.35;43.45;94112.00;4939461;29;19946;-88
2022/03/29 12:01:02;;;;;;;33.08;15.82;;;;;;;19.90;41.16;94106.53;4922064;29;20036;-88
2022/03/29 12:03:47;;;;;;;33.75;18.77;;;;;;;19.50;41.53;94100.00;4922101;29;20046;-88
2022/03/29 12:06:21;;;;;;;30.05;15.85;;;;;;;20.01;40.84;94096.28;4907010;29;20063;-88
2022/03/29 12:08:50;;;;;;;36.60;17.90;;;;;;;20.47;37.81;94096.06;4922900;29;20441;-88
2022/03/29 12:11:17;;;;;;;34.47;18.20;;;;;;;20.21;38.38;94083.16;4922534;29;20036;-88
2022/03/29 12:13:44;;;;;;;34.80;17.83;;;;;;;19.25;41.48;94077.94;4922596;29;20113;-88
2022/03/29 12:16:20;;;;;;;30.23;16.75;;;;;;;19.82;39.00;94080.06;4857310;29;1476567;-87
2022/03/29 12:18:46;;;;;;;38.63;21.75;;;;;;;20.38;40.41;94076.81;4923116;29;20118;-88
2022/03/29 12:21:16;;;;;;;38.53;19.55;;;;;;;20.24;42.03;94079.06;4907586;29;20051;-88
2022/03/29 12:23:42;;;;;;;44.22;22.40;;;;;;;19.27;42.46;94070.41;4907484;29;20475;-88
2022/03/29 12:26:09;;;;;;;40.63;21.17;;;;;;;19.76;42.22;94067.00;4938860;29;20059;-88
2022/03/29 12:28:37;;;;;;;37.17;21.60;;;;;;;19.51;43.70;94063.59;4907319;29;20138;-88
2022/03/29 12:31:02;;;;;;;36.75;21.50;;;;;;;19.67;40.91;94054.94;4923163;29;20047;-88
2022/03/29 12:33:28;;;;;;;42.85;24.77;;;;;;;18.96;42.86;94053.06;4922562;29;20494;-88
2022/03/29 12:36:08;;;;;;;45.03;25.13;;;;;;;17.87;45.74;94054.50;4922977;29;20131;-87
2022/03/29 12:38:53;;;;;;;45.42;23.38;;;;;;;18.17;46.00;94051.09;4922791;29;20039;-88
2022/03/29 12:41:38;;;;;;;39.03;21.25;;;;;;;18.74;46.06;94048.91;4923075;29;20040;-87
2022/03/29 12:44:09;;;;;;;42.38;24.35;;;;;;;18.61;47.49;94054.16;4938358;29;20040;-88
2022/03/29 12:46:36;;;;;;;53.05;26.10;;;;;;;18.48;45.64;94052.56;4907144;29;20507;-88
2022/03/29 12:49:02;;;;;;;49.60;25.70;;;;;;;18.46;45.20;94046.81;4938671;29;20044;-87
2022/03/29 12:51:33;;;;;;;51.58;25.63;;;;;;;18.14;46.89;94041.09;4922904;29;20051;-87
2022/03/29 12:54:05;;;;;;;49.42;26.52;;;;;;;18.48;48.41;94040.06;4922318;29;20035;-88
2022/03/29 12:56:38;;;;;;;52.47;27.63;;;;;;;18.62;49.07;94031.03;4922893;29;20043;-88
2022/03/29 12:59:27;;;;;;;50.95;28.55;;;;;;;18.68;48.46;94029.75;4922666;29;20035;-88
2022/03/29 13:02:10;;;;;;;49.50;26.20;;;;;;;18.77;49.14;94025.13;4922880;29;20039;-87
2022/03/29 13:04:37;;;;;;;50.20;28.35;;;;;;;19.19;48.15;94020.81;4922618;29;20048;-88
2022/03/29 13:07:03;;;;;;;54.83;30.20;;;;;;;18.83;51.79;94030.25;4922701;29;20048;-87
2022/03/29 13:09:29;;;;;;;48.95;28.00;;;;;;;18.71;49.29;94017.69;4938438;29;20119;-87
2022/03/29 13:12:15;;;;;;;54.95;29.00;;;;;;;18.31;50.65;94011.03;4941418;29;20044;-88
2022/03/29 13:14:43;;;;;;;51.65;30.27;;;;;;;17.78;52.85;94008.72;4926328;29;20504;-87
2022/03/29 13:17:10;;;;;;;50.53;28.73;;;;;;;17.32;53.70;94011.16;4926201;29;20401;-87
2022/03/29 13:19:36;;;;;;;57.63;30.83;;;;;;;17.21;56.08;94013.38;4942228;29;20049;-88
2022/03/29 13:22:04;;;;;;;56.22;31.88;;;;;;;16.98;57.78;94013.59;4942078;29;20108;-88
2022/03/29 13:24:40;;;;;;;61.67;33.13;;;;;;;17.15;65.38;94004.06;4926183;29;20039;-87
2022/03/29 13:27:06;;;;;;;59.47;33.08;;;;;;;17.12;58.29;94005.47;4942088;29;20127;-88
2022/03/29 13:29:33;;;;;;;58.78;31.70;;;;;;;17.51;57.96;94006.22;4911069;29;20039;-88
2022/03/29 13:31:59;;;;;;;61.38;31.50;;;;;;;18.12;59.02;94011.50;4910572;29;20051;-89
2022/03/29 13:34:28;;;;;;;59.90;33.28;;;;;;;18.27;57.03;93999.53;4941534;29;20042;-88
2022/03/29 13:36:54;;;;;;;57.75;32.05;;;;;;;18.14;57.73;93996.81;4943174;29;20039;-88
2022/03/29 13:39:20;;;;;;;53.75;31.20;;;;;;;18.55;54.90;93988.38;4942526;29;20043;-88
2022/03/29 13:41:45;;;;;;;63.47;32.58;;;;;;;18.41;55.90;93986.00;4910499;29;20091;-89
2022/03/29 13:44:12;;;;;;;52.72;30.10;;;;;;;18.58;57.36;93977.88;4941421;29;20043;-88
2022/03/29 13:46:38;;;;;;;57.90;31.77;;;;;;;18.45;56.77;93977.06;4926003;29;20428;-89
2022/03/29 13:49:04;;;;;;;64.38;35.28;;;;;;;17.18;60.59;93975.09;4941629;29;20123;-88
2022/03/29 13:51:29;;;;;;;65.35;35.13;;;;;;;16.62;64.30;93986.47;4925791;29;20040;-88
2022/03/29 13:53:55;;;;;;;61.50;34.28;;;;;;;16.97;69.13;93988.22;4941222;29;20114;-88
2022/03/29 13:56:21;;;;;;;61.10;33.42;;;;;;;17.84;62.74;93982.81;4941720;29;20397;-88
2022/03/29 13:58:46;;;;;;;54.70;32.10;;;;;;;17.49;58.95;93979.31;4925929;29;20046;-88
2022/03/29 14:01:12;;;;;;;64.32;33.22;;;;;;;16.92;62.58;93967.22;4947493;29;20039;-88
2022/03/29 14:03:38;;;;;;;67.65;34.35;;;;;;;16.69;64.42;93983.34;4944257;29;20050;-88
2022/03/29 14:06:03;;;;;;;61.92;33.33;;;;;;;16.35;64.89;93972.50;4944766;29;20071;-88
2022/03/29 14:08:32;;;;;;;67.07;35.35;;;;;;;16.28;67.00;93974.06;4961398;29;20441;-88
2022/03/29 14:11:00;;;;;;;64.10;34.10;;;;;;;16.64;67.16;93967.63;4944656;29;20035;-88
2022/03/29 14:13:28;;;;;;;54.58;31.50;;;;;;;17.22;64.22;93954.84;4961488;29;20027;-87
2022/03/29 14:15:54;;;;;;;56.88;32.58;;;;;;;17.36;59.24;93951.19;4944321;29;20135;-88
2022/03/29 14:18:22;;;;;;;56.10;32.20;;;;;;;16.81;61.36;93946.41;4928786;29;20042;-87
2022/03/29 14:20:50;;;;;;;69.47;35.38;;;;;;;16.33;68.23;93942.97;4944463;29;20349;-87
2022/03/29 14:23:16;;;;;;;68.55;36.15;;;;;;;16.17;70.32;93939.25;4943918;29;20066;-87
2022/03/29 14:25:44;;;;;;;67.57;35.92;;;;;;;15.89;76.41;93935.06;4928054;29;20038;-87
2022/03/29 14:28:10;;;;;;;68.65;35.97;;;;;;;16.14;76.27;93935.38;4960201;29;20031;-87
2022/03/29 14:30:37;;;;;;;70.03;36.58;;;;;;;15.94;75.58;93932.28;4960131;29;20035;-88
2022/03/29 14:33:03;;;;;;;66.70;35.20;;;;;;;16.75;70.77;93926.50;4944215;29;20162;-88
2022/03/29 14:35:28;;;;;;;70.93;33.45;;;;;;;16.50;66.98;93923.66;4943763;29;20071;-87
2022/03/29 14:37:54;;;;;;;62.55;32.25;;;;;;;16.96;64.70;93933.75;4944101;29;20163;-88
2022/03/29 14:40:20;;;;;;;57.92;32.20;;;;;;;16.73;63.14;93926.06;4959968;29;20086;-87
2022/03/29 14:42:51;;;;;;;53.70;31.45;;;;;;;16.61;63.39;93925.94;4943935;29;20389;-88
2022/03/29 14:45:18;;;;;;;57.70;31.42;;;;;;;16.84;61.93;93928.34;4943881;29;20035;-88
2022/03/29 14:47:45;;;;;;;56.53;32.20;;;;;;;16.52;65.27;93926.75;4943876;29;20413;-88
2022/03/29 14:50:13;;;;;;;61.10;32.72;;;;;;;16.86;64.63;93920.88;4943642;29;20114;-87
2022/03/29 14:52:42;;;;;;;61.80;32.88;;;;;;;17.34;61.52;93914.41;4943852;29;20035;-89
2022/03/29 14:55:09;;;;;;;61.40;33.92;;;;;;;17.51;60.69;93910.13;4943506;29;20094;-88